createdAt,value
2018-06-03T00:02:20.138Z,4.60
2018-06-03T00:04:47.664Z,4.20
2018-06-03T00:07:15.193Z,3.83
2018-06-03T00:09:42.753Z,4.60
2018-06-03T00:12:11.019Z,3.97
2018-06-03T00:14:38.521Z,4.00
2018-06-03T00:17:06.033Z,3.70
2018-06-03T00:19:33.570Z,3.43
2018-06-03T00:22:01.866Z,2.73
2018-06-03T00:24:30.149Z,3.23
2018-06-03T00:26:58.444Z,3.40
2018-06-03T00:29:25.974Z,3.23
2018-06-03T00:31:53.492Z,3.43
2018-06-03T00:34:21.006Z,3.30
2018-06-03T00:36:49.284Z,3.30
2018-06-03T00:39:16.812Z,3.33
2018-06-03T00:41:44.366Z,4.90
2018-06-03T00:44:11.912Z,4.70
2018-06-03T00:46:39.450Z,4.70
2018-06-03T00:49:07.729Z,6.80
2018-06-03T00:52:24.321Z,6.13
2018-06-03T00:54:52.486Z,5.47
2018-06-03T00:57:20.968Z,5.90
2018-06-03T00:59:49.423Z,5.10
2018-06-03T01:02:18.082Z,4.77
2018-06-03T01:04:46.575Z,4.73
2018-06-03T01:07:15.113Z,4.30
2018-06-03T01:09:43.615Z,5.00
2018-06-03T01:12:12.641Z,5.27
2018-06-03T01:14:41.111Z,4.10
2018-06-03T01:17:09.566Z,5.30
2018-06-03T01:19:38.089Z,4.13
2018-06-03T01:22:06.624Z,3.43
2018-06-03T01:24:35.124Z,4.17
2018-06-03T01:27:03.256Z,4.53
2018-06-03T01:29:31.714Z,3.60
2018-06-03T01:32:00.134Z,3.47
2018-06-03T01:34:28.560Z,3.10
2018-06-03T01:36:57.044Z,3.23
2018-06-03T01:39:25.567Z,3.37
2018-06-03T01:41:54.022Z,3.57
2018-06-03T01:44:22.210Z,3.07
2018-06-03T01:46:50.710Z,3.30
2018-06-03T01:49:19.157Z,3.47
2018-06-03T01:51:47.373Z,3.50
2018-06-03T01:54:15.826Z,3.53
2018-06-03T01:56:44.298Z,3.27
2018-06-03T01:59:12.424Z,3.60
2018-06-03T02:01:40.880Z,4.00
2018-06-03T02:04:09.393Z,3.50
2018-06-03T02:06:37.945Z,3.30
2018-06-03T02:09:07.041Z,3.40
2018-06-03T02:11:35.527Z,3.20
2018-06-03T02:14:04.042Z,4.40
2018-06-03T02:16:33.714Z,3.93
2018-06-03T02:19:02.227Z,4.50
2018-06-03T02:21:30.739Z,4.47
2018-06-03T02:23:59.186Z,4.50
2018-06-03T02:26:27.330Z,4.20
2018-06-03T02:28:55.893Z,4.57
2018-06-03T02:31:24.444Z,5.00
2018-06-03T02:33:52.962Z,3.70
2018-06-03T02:36:21.390Z,4.00
2018-06-03T02:38:49.859Z,3.97
2018-06-03T02:41:18.383Z,4.53
2018-06-03T02:43:46.898Z,5.00
2018-06-03T02:46:15.328Z,3.87
2018-06-03T02:48:43.772Z,3.90
2018-06-03T02:51:12.270Z,5.17
2018-06-03T02:53:40.754Z,4.30
2018-06-03T02:56:09.436Z,4.50
2018-06-03T02:58:37.882Z,3.73
2018-06-03T03:01:06.436Z,5.20
2018-06-03T03:03:34.891Z,4.93
2018-06-03T03:06:03.485Z,4.17
2018-06-03T03:08:31.944Z,3.40
2018-06-03T03:11:00.388Z,3.50
2018-06-03T03:13:28.841Z,3.17
2018-06-03T03:15:57.379Z,3.70
2018-06-03T03:18:25.890Z,3.47
2018-06-03T03:20:54.343Z,3.60
2018-06-03T03:23:23.390Z,3.80
2018-06-03T03:25:51.979Z,3.20
2018-06-03T03:28:20.469Z,4.10
2018-06-03T03:30:48.934Z,3.97
2018-06-03T03:33:17.401Z,3.83
2018-06-03T03:35:45.533Z,3.80
2018-06-03T03:38:14.003Z,4.30
2018-06-03T03:40:42.482Z,3.40
2018-06-03T03:43:11.031Z,3.60
2018-06-03T03:45:39.472Z,3.60
2018-06-03T03:48:08.024Z,2.93
2018-06-03T03:50:36.176Z,3.13
2018-06-03T03:53:04.331Z,3.67
2018-06-03T03:55:32.800Z,3.70
2018-06-03T03:58:01.256Z,3.07
2018-06-03T04:00:29.721Z,3.50
2018-06-03T04:02:58.239Z,3.20
2018-06-03T04:05:26.805Z,3.20
2018-06-03T04:07:55.279Z,2.93
2018-06-03T04:10:23.855Z,3.57
2018-06-03T04:12:52.397Z,3.07
2018-06-03T04:15:20.843Z,2.40
2018-06-03T04:17:49.359Z,2.60
2018-06-03T04:20:17.843Z,3.00
2018-06-03T04:22:46.328Z,2.73
2018-06-03T04:25:14.781Z,2.43
2018-06-03T04:27:43.401Z,2.70
2018-06-03T04:30:11.961Z,2.63
2018-06-03T04:32:40.082Z,3.23
2018-06-03T04:35:08.550Z,3.47
2018-06-03T04:37:37.012Z,2.70
2018-06-03T04:40:05.518Z,2.97
2018-06-03T04:42:34.008Z,2.60
2018-06-03T04:45:02.486Z,2.17
2018-06-03T04:47:31.058Z,2.13
2018-06-03T04:49:59.569Z,2.23
2018-06-03T04:52:28.056Z,2.83
2018-06-03T04:54:56.595Z,2.40
2018-06-03T04:57:25.066Z,2.20
2018-06-03T04:59:53.518Z,2.60
2018-06-03T05:02:21.962Z,2.60
2018-06-03T05:04:50.453Z,2.23
2018-06-03T05:07:18.967Z,2.23
2018-06-03T05:09:47.455Z,2.50
2018-06-03T05:12:15.952Z,2.90
2018-06-03T05:14:44.448Z,2.50
2018-06-03T05:17:12.901Z,2.00
2018-06-03T05:19:41.406Z,2.37
2018-06-03T05:22:09.879Z,2.90
2018-06-03T05:24:38.366Z,3.13
2018-06-03T05:27:06.535Z,2.40
2018-06-03T05:29:35.093Z,3.03
2018-06-03T05:32:03.579Z,2.60
2018-06-03T05:34:31.741Z,2.00
2018-06-03T05:37:00.208Z,2.47
2018-06-03T05:39:28.660Z,2.60
2018-06-03T05:41:57.959Z,2.80
2018-06-03T05:44:26.419Z,2.70
2018-06-03T05:46:55.015Z,2.80
2018-06-03T05:49:23.614Z,2.90
2018-06-03T05:51:52.060Z,2.77
2018-06-03T05:54:20.625Z,2.87
2018-06-03T05:56:49.381Z,3.13
2018-06-03T05:59:17.849Z,2.60
2018-06-03T06:01:46.004Z,2.73
2018-06-03T06:04:14.650Z,2.87
2018-06-03T06:06:43.144Z,3.10
2018-06-03T06:09:11.891Z,2.70
2018-06-03T06:11:40.356Z,2.30
2018-06-03T06:14:08.869Z,1.73
2018-06-03T06:16:37.330Z,2.57
2018-06-03T06:19:05.845Z,2.40
2018-06-03T06:21:34.351Z,2.43
2018-06-03T06:24:02.795Z,1.73
2018-06-03T06:26:31.307Z,2.00
2018-06-03T06:28:59.785Z,2.43
2018-06-03T06:31:28.314Z,2.80
2018-06-03T06:33:56.724Z,2.10
2018-06-03T06:36:25.243Z,2.23
2018-06-03T06:38:53.757Z,2.10
2018-06-03T06:41:22.232Z,2.17
2018-06-03T06:43:50.932Z,1.80
2018-06-03T06:46:19.431Z,1.70
2018-06-03T06:48:47.929Z,2.17
2018-06-03T06:51:16.442Z,2.53
2018-06-03T06:53:44.940Z,1.93
2018-06-03T06:56:13.126Z,2.10
2018-06-03T06:58:41.724Z,2.47
2018-06-03T07:01:10.024Z,2.40
2018-06-03T07:03:38.584Z,2.47
2018-06-03T07:06:07.161Z,1.93
2018-06-03T07:08:35.804Z,2.63
2018-06-03T07:11:04.448Z,1.80
2018-06-03T07:13:32.967Z,2.23
2018-06-03T07:16:01.494Z,2.37
2018-06-03T07:18:29.939Z,2.53
2018-06-03T07:20:58.401Z,2.70
2018-06-03T07:23:26.906Z,2.90
2018-06-03T07:25:55.368Z,2.33
2018-06-03T07:28:23.868Z,2.90
2018-06-03T07:30:52.473Z,2.93
2018-06-03T07:33:20.935Z,2.97
2018-06-03T07:35:49.413Z,2.90
2018-06-03T07:38:17.991Z,3.40
2018-06-03T07:40:47.010Z,3.47
2018-06-03T07:43:15.475Z,2.93
2018-06-03T07:45:44.017Z,2.40
2018-06-03T07:48:12.501Z,2.70
2018-06-03T07:50:41.469Z,2.93
2018-06-03T07:53:09.931Z,2.70
2018-06-03T07:55:38.097Z,3.00
2018-06-03T07:58:06.631Z,2.27
2018-06-03T08:00:35.129Z,2.87
2018-06-03T08:03:03.700Z,3.03
2018-06-03T08:05:32.296Z,4.03
2018-06-03T08:08:00.810Z,3.87
2018-06-03T08:10:29.265Z,3.90
2018-06-03T08:12:57.750Z,3.23
2018-06-03T08:15:26.323Z,3.00
2018-06-03T08:17:55.161Z,4.57
2018-06-03T08:20:23.687Z,4.93
2018-06-03T08:22:52.281Z,4.00
2018-06-03T08:25:20.803Z,3.70
2018-06-03T08:27:49.278Z,4.50
2018-06-03T08:30:17.859Z,4.70
2018-06-03T08:32:46.360Z,3.47
2018-06-03T08:35:14.877Z,4.30
2018-06-03T08:37:43.367Z,3.53
2018-06-03T08:40:11.816Z,2.87
2018-06-03T08:42:40.400Z,3.03
2018-06-03T08:45:09.026Z,4.10
2018-06-03T08:47:37.569Z,3.60
2018-06-03T08:50:06.125Z,4.50
2018-06-03T08:52:34.740Z,3.33
2018-06-03T08:55:03.279Z,3.70
2018-06-03T08:57:31.736Z,4.47
2018-06-03T09:00:00.283Z,3.20
2018-06-03T09:02:28.787Z,3.10
2018-06-03T09:04:57.273Z,3.77
2018-06-03T09:07:25.857Z,3.07
2018-06-03T09:09:54.333Z,2.80
2018-06-03T09:12:22.828Z,2.53
2018-06-03T09:14:51.387Z,3.00
2018-06-03T09:17:20.004Z,2.90
2018-06-03T09:19:48.536Z,2.70
2018-06-03T09:22:17.060Z,2.90
2018-06-03T09:24:45.916Z,3.80
2018-06-03T09:27:14.504Z,3.50
2018-06-03T09:29:43.052Z,3.60
2018-06-03T09:32:11.962Z,2.30
2018-06-03T09:34:40.536Z,2.80
2018-06-03T09:37:08.987Z,2.83
2018-06-03T09:39:37.211Z,2.87
2018-06-03T09:42:05.865Z,3.40
2018-06-03T09:44:34.403Z,4.10
2018-06-03T09:47:02.896Z,3.00
2018-06-03T09:49:31.503Z,2.60
2018-06-03T09:51:59.985Z,3.07
2018-06-03T09:54:28.224Z,3.23
2018-06-03T09:56:56.904Z,2.47
2018-06-03T09:59:25.358Z,3.13
2018-06-03T10:01:53.824Z,3.37
2018-06-03T10:04:22.303Z,2.40
2018-06-03T10:06:50.890Z,3.20
2018-06-03T10:09:19.491Z,2.87
2018-06-03T10:11:47.813Z,3.30
2018-06-03T10:14:16.407Z,2.37
2018-06-03T10:16:45.909Z,2.50
2018-06-03T10:19:14.469Z,2.70
2018-06-03T10:21:42.985Z,2.57
2018-06-03T10:24:11.534Z,2.20
2018-06-03T10:26:39.710Z,2.70
2018-06-03T10:29:07.853Z,1.80
2018-06-03T10:31:36.353Z,2.63
2018-06-03T10:34:05.008Z,2.60
2018-06-03T10:36:33.486Z,2.77
2018-06-03T10:39:02.086Z,2.30
2018-06-03T10:41:30.596Z,2.10
2018-06-03T10:43:59.093Z,2.57
2018-06-03T10:46:27.588Z,2.37
2018-06-03T10:48:56.123Z,2.43
2018-06-03T10:51:24.631Z,2.10
2018-06-03T10:53:53.124Z,1.90
2018-06-03T10:56:22.179Z,2.10
2018-06-03T10:58:50.657Z,1.93
2018-06-03T11:01:19.151Z,1.97
2018-06-03T11:03:48.065Z,2.00
2018-06-03T11:06:16.544Z,2.13
2018-06-03T11:08:44.775Z,1.70
2018-06-03T11:11:12.962Z,1.80
2018-06-03T11:13:41.282Z,2.10
2018-06-03T11:16:09.742Z,1.70
2018-06-03T11:18:37.887Z,1.87
2018-06-03T11:21:06.391Z,1.60
2018-06-03T11:23:34.610Z,1.63
2018-06-03T11:26:03.108Z,1.50
2018-06-03T11:28:31.596Z,1.93
2018-06-03T11:31:00.097Z,10.77
2018-06-03T11:33:28.672Z,2.20
2018-06-03T11:35:57.130Z,1.70
2018-06-03T11:38:25.618Z,1.60
2018-06-03T11:40:54.089Z,1.20
2018-06-03T11:43:22.598Z,1.27
2018-06-03T11:45:51.091Z,1.60
2018-06-03T11:48:19.672Z,1.73
2018-06-03T11:50:48.259Z,1.70
2018-06-03T11:53:16.752Z,1.70
2018-06-03T11:55:45.251Z,1.70
2018-06-03T11:58:55.201Z,2.13
2018-06-03T12:01:24.277Z,1.60
2018-06-03T12:03:52.741Z,1.50
2018-06-03T12:06:21.914Z,1.50
2018-06-03T12:08:50.483Z,1.67
2018-06-03T12:11:19.071Z,1.53
2018-06-03T12:13:47.577Z,1.40
2018-06-03T12:16:16.843Z,1.20
2018-06-03T12:18:45.411Z,1.47
2018-06-03T12:21:14.507Z,1.50
2018-06-03T12:23:42.718Z,1.00
2018-06-03T12:26:11.175Z,1.30
2018-06-03T12:28:39.693Z,1.20
2018-06-03T12:31:08.196Z,1.47
2018-06-03T12:33:36.840Z,1.30
2018-06-03T12:36:05.105Z,2.47
2018-06-03T12:38:33.578Z,1.27
2018-06-03T12:41:02.014Z,1.43
2018-06-03T12:43:30.481Z,1.13
2018-06-03T12:45:58.626Z,1.40
2018-06-03T12:48:27.108Z,1.43
2018-06-03T12:50:55.584Z,1.40
2018-06-03T12:53:24.125Z,1.90
2018-06-03T12:55:52.619Z,1.57
2018-06-03T12:58:21.181Z,2.17
2018-06-03T13:00:49.336Z,1.60
2018-06-03T13:03:17.828Z,1.77
2018-06-03T13:05:46.284Z,1.20
2018-06-03T13:08:14.795Z,1.10
2018-06-03T13:10:43.263Z,1.30
2018-06-03T13:13:11.747Z,1.20
2018-06-03T13:15:40.234Z,1.30
2018-06-03T13:18:08.719Z,1.33
2018-06-03T13:20:37.184Z,1.90
2018-06-03T13:23:05.646Z,1.57
2018-06-03T13:25:33.903Z,1.57
2018-06-03T13:28:02.383Z,1.73
2018-06-03T13:30:30.887Z,0.83
2018-06-03T13:32:59.118Z,1.27
2018-06-03T13:35:27.550Z,1.73
2018-06-03T13:37:55.666Z,1.53
2018-06-03T13:40:24.213Z,1.37
2018-06-03T13:42:52.414Z,1.70
2018-06-03T13:45:20.882Z,1.40
2018-06-03T13:47:49.332Z,1.40
2018-06-03T13:50:17.811Z,1.50
2018-06-03T13:52:46.298Z,1.73
2018-06-03T13:55:14.756Z,1.30
2018-06-03T13:57:43.241Z,1.03
2018-06-03T14:00:11.704Z,2.00
2018-06-03T14:02:40.251Z,1.23
2018-06-03T14:05:08.730Z,1.30
2018-06-03T14:07:37.182Z,1.37
2018-06-03T14:10:05.896Z,1.20
2018-06-03T14:12:34.499Z,1.70
2018-06-03T14:15:03.005Z,1.50
2018-06-03T14:17:31.205Z,1.70
2018-06-03T14:19:59.701Z,1.80
2018-06-03T14:22:28.146Z,1.47
2018-06-03T14:24:56.630Z,1.67
2018-06-03T14:27:25.200Z,1.60
2018-06-03T14:29:53.736Z,1.50
2018-06-03T14:32:22.219Z,1.90
2018-06-03T14:34:50.708Z,1.70
2018-06-03T14:37:18.870Z,1.63
2018-06-03T14:39:47.050Z,1.50
2018-06-03T14:42:15.367Z,1.73
2018-06-03T14:44:43.821Z,1.47
2018-06-03T14:47:12.020Z,2.00
2018-06-03T14:49:40.575Z,1.60
2018-06-03T14:52:09.036Z,1.77
2018-06-03T14:54:37.526Z,1.40
2018-06-03T14:57:06.035Z,1.37
2018-06-03T14:59:34.294Z,1.57
2018-06-03T15:02:03.067Z,1.30
2018-06-03T15:04:31.633Z,1.47
2018-06-03T15:07:00.149Z,1.60
2018-06-03T15:09:28.322Z,1.90
2018-06-03T15:11:56.544Z,2.03
2018-06-03T15:14:25.008Z,1.70
2018-06-03T15:16:53.470Z,1.30
2018-06-03T15:19:21.694Z,1.60
2018-06-03T15:21:50.242Z,1.37
2018-06-03T15:24:18.705Z,1.47
2018-06-03T15:26:47.280Z,1.30
2018-06-03T15:29:15.976Z,1.60
2018-06-03T15:31:44.464Z,1.80
2018-06-03T15:34:13.003Z,1.50
2018-06-03T15:36:41.179Z,1.20
2018-06-03T15:39:09.678Z,1.80
2018-06-03T15:41:37.850Z,1.60
2018-06-03T15:44:06.420Z,2.10
2018-06-03T15:46:34.933Z,1.63
2018-06-03T15:49:03.154Z,1.80
2018-06-03T15:51:31.720Z,2.03
2018-06-03T15:54:00.285Z,1.80
2018-06-03T15:56:28.768Z,1.87
2018-06-03T15:58:57.246Z,1.70
2018-06-03T16:01:25.783Z,1.97
2018-06-03T16:03:54.243Z,1.57
2018-06-03T16:06:23.327Z,1.43
2018-06-03T16:08:51.789Z,1.50
2018-06-03T16:11:20.254Z,1.80
2018-06-03T16:13:49.413Z,1.53
2018-06-03T16:16:17.955Z,1.90
2018-06-03T16:18:46.417Z,1.50
2018-06-03T16:21:14.577Z,2.00
2018-06-03T16:23:42.771Z,1.53
2018-06-03T16:26:10.965Z,1.77
2018-06-03T16:28:39.464Z,1.30
2018-06-03T16:31:07.957Z,1.40
2018-06-03T16:33:36.422Z,1.90
2018-06-03T16:36:05.131Z,1.77
2018-06-03T16:38:33.707Z,1.53
2018-06-03T16:41:02.201Z,1.63
2018-06-03T16:43:30.750Z,2.43
2018-06-03T16:45:59.262Z,1.77
2018-06-03T16:48:27.773Z,2.03
2018-06-03T16:50:55.944Z,2.03
2018-06-03T16:53:24.433Z,1.97
2018-06-03T16:55:53.042Z,1.50
2018-06-03T16:58:21.252Z,1.60
2018-06-03T17:00:49.764Z,1.90
2018-06-03T17:03:18.236Z,2.57
2018-06-03T17:05:46.750Z,1.70
2018-06-03T17:08:15.366Z,1.90
2018-06-03T17:10:43.585Z,1.63
2018-06-03T17:13:12.147Z,2.00
2018-06-03T17:15:40.582Z,2.03
2018-06-03T17:18:09.184Z,1.97
2018-06-03T17:20:37.725Z,1.87
2018-06-03T17:23:06.293Z,1.80
2018-06-03T17:25:35.027Z,1.90
2018-06-03T17:28:03.673Z,1.90
2018-06-03T17:30:31.865Z,1.90
2018-06-03T17:33:00.472Z,1.30
2018-06-03T17:35:29.158Z,2.00
2018-06-03T17:37:57.735Z,1.60
2018-06-03T17:40:27.023Z,1.60
2018-06-03T17:42:55.446Z,1.63
2018-06-03T17:45:25.507Z,1.80
2018-06-03T17:47:53.994Z,1.53
2018-06-03T17:50:22.186Z,1.77
2018-06-03T17:52:50.911Z,2.00
2018-06-03T17:55:19.582Z,1.53
2018-06-03T17:57:48.198Z,1.40
2018-06-03T18:00:16.780Z,2.50
2018-06-03T18:02:45.302Z,2.20
2018-06-03T18:05:13.899Z,1.97
2018-06-03T18:07:42.607Z,2.10
2018-06-03T18:10:11.739Z,1.20
2018-06-03T18:12:40.753Z,1.87
2018-06-03T18:15:10.352Z,1.67
2018-06-03T18:17:39.182Z,1.93
2018-06-03T18:20:07.419Z,2.00
2018-06-03T18:22:36.465Z,1.90
2018-06-03T18:25:05.249Z,1.90
2018-06-03T18:27:35.094Z,2.30
2018-06-03T18:30:04.962Z,1.77
2018-06-03T18:32:34.333Z,1.93
2018-06-03T18:35:03.180Z,2.00
2018-06-03T18:37:31.941Z,2.13
2018-06-03T18:40:01.444Z,2.17
2018-06-03T18:42:30.316Z,2.10
2018-06-03T18:44:59.700Z,2.50
2018-06-03T18:47:28.075Z,2.13
2018-06-03T18:49:57.826Z,2.37
2018-06-03T18:52:26.922Z,1.50
2018-06-03T18:54:55.900Z,1.70
2018-06-03T18:57:25.374Z,2.07
2018-06-03T18:59:54.364Z,1.90
2018-06-03T19:02:23.750Z,2.17
2018-06-03T19:04:53.794Z,1.80
2018-06-03T19:07:24.787Z,1.87
2018-06-03T19:09:53.703Z,2.13
2018-06-03T19:12:23.500Z,1.80
2018-06-03T19:14:52.843Z,2.20
2018-06-03T19:17:22.404Z,2.23
2018-06-03T19:19:51.503Z,2.20
2018-06-03T19:22:21.042Z,2.30
2018-06-03T19:24:52.055Z,1.90
2018-06-03T19:27:20.607Z,2.00
2018-06-03T19:29:49.953Z,2.40
2018-06-03T19:32:19.031Z,1.70
2018-06-03T19:34:48.780Z,2.30
2018-06-03T19:37:17.701Z,2.30
2018-06-03T19:39:46.926Z,2.60
2018-06-03T19:42:15.996Z,2.20
2018-06-03T19:44:45.235Z,2.13
2018-06-03T19:47:16.343Z,2.17
2018-06-03T19:49:45.454Z,2.10
2018-06-03T19:52:14.269Z,2.53
2018-06-03T19:54:43.212Z,3.13
2018-06-03T19:57:12.503Z,3.30
2018-06-03T19:59:40.873Z,2.50
2018-06-03T20:02:09.987Z,2.80
2018-06-03T20:04:38.567Z,2.40
2018-06-03T20:07:07.105Z,3.07
2018-06-03T20:09:37.064Z,2.70
2018-06-03T20:12:05.842Z,2.23
2018-06-03T20:14:34.804Z,2.30
2018-06-03T20:17:03.846Z,2.47
2018-06-03T20:19:32.890Z,2.67
2018-06-03T20:22:01.827Z,3.20
2018-06-03T20:24:30.653Z,2.87
2018-06-03T20:26:59.416Z,3.63
2018-06-03T20:29:28.875Z,2.90
2018-06-03T20:31:57.942Z,2.80
2018-06-03T20:34:26.379Z,2.67
2018-06-03T20:36:55.265Z,2.33
2018-06-03T20:39:24.131Z,3.00
2018-06-03T20:41:52.978Z,2.90
2018-06-03T20:44:21.795Z,2.97
2018-06-03T20:46:50.333Z,2.20
2018-06-03T20:49:18.872Z,2.70
2018-06-03T20:51:47.197Z,3.33
2018-06-03T20:54:16.026Z,2.43
2018-06-03T20:56:44.514Z,2.57
2018-06-03T20:59:13.047Z,3.67
2018-06-03T21:01:41.336Z,2.90
2018-06-03T21:04:09.857Z,2.80
2018-06-03T21:06:38.393Z,2.47
2018-06-03T21:09:07.430Z,2.70
2018-06-03T21:11:36.204Z,2.87
2018-06-03T21:14:04.751Z,3.10
2018-06-03T21:16:33.013Z,3.30
2018-06-03T21:19:01.573Z,3.00
2018-06-03T21:21:30.040Z,2.53
2018-06-03T21:23:58.532Z,3.10
2018-06-03T21:26:26.999Z,2.73
2018-06-03T21:28:55.188Z,2.93
2018-06-03T21:31:23.650Z,2.77
2018-06-03T21:33:52.151Z,2.93
2018-06-03T21:36:20.647Z,2.70
2018-06-03T21:38:49.126Z,3.27
2018-06-03T21:41:17.676Z,2.47
2018-06-03T21:43:46.141Z,3.17
2018-06-03T21:46:14.579Z,3.00
2018-06-03T21:48:43.113Z,2.70
2018-06-03T21:51:11.654Z,2.80
2018-06-03T21:53:39.925Z,3.30
2018-06-03T21:56:08.206Z,3.60
2018-06-03T21:58:36.384Z,3.57
2018-06-03T22:01:04.527Z,2.87
2018-06-03T22:03:33.023Z,3.30
2018-06-03T22:06:01.579Z,3.23
2018-06-03T22:08:30.126Z,3.27
2018-06-03T22:10:58.303Z,3.27
2018-06-03T22:13:26.429Z,2.80
2018-06-03T22:15:54.907Z,3.23
2018-06-03T22:18:23.383Z,3.50
2018-06-03T22:20:51.842Z,3.50
2018-06-03T22:23:20.009Z,3.30
2018-06-03T22:25:48.129Z,3.97
2018-06-03T22:28:16.671Z,3.20
2018-06-03T22:30:44.826Z,4.00
2018-06-03T22:33:13.272Z,3.23
2018-06-03T22:35:41.835Z,3.60
2018-06-03T22:38:09.989Z,3.67
2018-06-03T22:40:38.450Z,3.50
2018-06-03T22:43:06.975Z,3.43
2018-06-03T22:45:35.150Z,3.50
2018-06-03T22:48:03.643Z,3.60
2018-06-03T22:50:31.810Z,4.20
2018-06-03T22:53:00.309Z,3.20
2018-06-03T22:55:28.548Z,3.80
2018-06-03T22:57:57.089Z,3.67
2018-06-03T23:00:28.194Z,4.77
2018-06-03T23:03:02.063Z,5.10
2018-06-03T23:05:30.648Z,4.77
2018-06-03T23:07:59.192Z,3.30
2018-06-03T23:10:27.366Z,4.27
2018-06-03T23:12:56.005Z,3.70
2018-06-03T23:15:24.751Z,3.97
2018-06-03T23:17:52.926Z,4.10
2018-06-03T23:20:21.389Z,3.20
2018-06-03T23:22:49.940Z,4.00
2018-06-03T23:25:18.385Z,3.90
2018-06-03T23:27:46.524Z,4.23
2018-06-03T23:30:14.986Z,4.50
2018-06-03T23:32:43.403Z,3.63
2018-06-03T23:35:11.962Z,4.10
2018-06-03T23:37:40.401Z,4.03
2018-06-03T23:40:08.566Z,4.20
2018-06-03T23:42:37.014Z,4.43
2018-06-03T23:45:05.510Z,4.10
2018-06-03T23:47:34.000Z,4.10
2018-06-03T23:50:02.482Z,4.60
2018-06-03T23:52:30.930Z,5.00
2018-06-03T23:55:00.051Z,4.17
2018-06-03T23:57:28.539Z,4.33
2018-06-03T23:59:56.992Z,3.97
